Apalachicola, FL

5:04 AM EDT on October 01, 2014 (GMT -0400)
Apalachicola Municipal | Change Station
CLOSE
Current Station
Airport
Location: Apalachicola,
Elevation: 20 ft
Nearby Weather Stations

Elev 20 ft 29.73 °N, 85.03 °W | Updated 1 hour ago

Clear
Clear
72 °F
Feels Like 72 °F
N
4
Wind Variable Wind from North

Today
High -- | Low -- °F
--% Chance of Precip.
Yesterday
High -- | Low -- °F
Precip. -- in
7:33 AM 7:25 PM
Waxing Crescent, 45% visible
Pressure 29.88 in
Visibility 10.0 miles
Clouds Clear
Dew Point 68 °F
Humidity 87%
Rainfall 0.00 in
Snow Depth Not available.
UV 0 out of 12
Pollen 7.70 out of 12
Air Quality Not available.
Flu Activity Not available.
METAR KAAF 010753Z AUTO 01003KT 10SM CLR 22/20 A2988 RMK AO2 SLP118 T02220200 TSNO

More Conditions Fewer Conditions

Pressure 29.88 in
Visibility 10.0 miles
Clouds Clear
Dew Point 68 °F
Humidity 87%
Rainfall 0.00 in
Snow Depth Not available.
UV 0 out of 12
Pollen 7.70 out of 12
Air Quality Not available.
Flu Activity Not available.
METAR KAAF 010753Z AUTO 01003KT 10SM CLR 22/20 A2988 RMK AO2 SLP118 T02220200 TSNO

More Conditions Fewer Conditions

10-Day Weather Forecast

Almanac

Astronomy

Oct. 01, 2014 Rise Set
Actual Time 7:33 AM EDT 7:25 PM EDT
Civil Twilight 7:09 AM EDT 7:49 PM EDT
Nautical Twilight 6:41 AM EDT 8:16 PM EDT
Astronomical Twilight 6:14 AM EDT 8:44 PM EDT
Moon 2:15 PM EDT 12:15 AM EDT
Length of Visible Light 12h 39m
Length of Day
11h 52m
Tomorrow will be 1m 46s shorter.
Waxing Crescent, 45% of the Moon is Illuminated
Today
Waxing Crescent
Oct 1
First Quarter
Oct 8
Full
Oct 15
Last Quarter
Oct 23
New

Today's Extremes

State Highs State Lows

Community

WunderPhotos

Upload Photos

1,757,902 photos uploaded!

Nearby

Snow Depth

Station Depth Elevation
No new snow has been reported.

Earthquake Activity

City Distance Mag. Time & Date
No recent earthquake activity has been reported nearby.
Minimum magnitude displayed is 2.5.

Coastal Water Temperatures

Place Temperature
Panama City, FL 80.1 °F
Panama City Beach, FL 80.1 °F
Apalachicola, FL 78.1 °F

Nearby Weather Stations